Time;durP1;ratioP1;P1;durP2;ratioP2;P2;SDS_P1;SDS_P2;PMS_P1;PMS_P2;Temp;Humidity;BMP_temperature;BMP_pressure;BME280_temperature;BME280_humidity;BME280_pressure;Samples;Min_cycle;Max_cycle;Signal;HPM_P1;HPM_P2
2022/04/23 00:02:02;;;;;;;23.73;14.63;;;;;;;10.75;70.00;98802.38;5005169;28;20117;-82
2022/04/23 00:04:30;;;;;;;23.63;14.20;;;;;;;10.82;70.20;98807.50;5005735;28;20105;-81
2022/04/23 00:06:56;;;;;;;23.27;15.43;;;;;;;10.92;69.76;98817.47;5005401;28;20076;-81
2022/04/23 00:09:21;;;;;;;26.60;15.57;;;;;;;10.91;69.93;98811.19;5005346;28;20034;-81
2022/04/23 00:11:47;;;;;;;25.90;14.13;;;;;;;10.88;69.87;98808.25;5004768;28;20219;-80
2022/04/23 00:14:12;;;;;;;27.27;15.82;;;;;;;10.84;69.90;98811.53;5005745;28;20267;-81
2022/04/23 00:16:37;;;;;;;25.67;14.87;;;;;;;10.78;70.38;98814.63;5004815;28;20033;-80
2022/04/23 00:19:03;;;;;;;22.80;14.85;;;;;;;10.77;70.50;98810.25;5005442;28;20263;-81
2022/04/23 00:21:28;;;;;;;21.60;13.47;;;;;;;10.64;71.02;98811.78;5005355;28;20052;-81
2022/04/23 00:23:53;;;;;;;21.57;13.93;;;;;;;10.86;70.61;98817.50;5005031;28;20828;-82
2022/04/23 00:26:18;;;;;;;22.50;13.55;;;;;;;10.78;70.37;98820.88;5005376;28;20262;-81
2022/04/23 00:28:44;;;;;;;26.60;15.13;;;;;;;10.82;70.30;98821.13;5005195;28;20026;-81
2022/04/23 00:31:09;;;;;;;22.92;14.75;;;;;;;10.80;70.17;98815.94;5004901;28;20279;-82
2022/04/23 00:33:37;;;;;;;23.58;14.27;;;;;;;10.64;71.14;98817.22;5004944;28;20248;-82
2022/04/23 00:38:52;;;;;;;22.35;14.50;;;;;;;10.49;71.68;98811.66;5003174;28;20088;-81
2022/04/23 00:44:04;;;;;;;22.13;14.35;;;;;;;10.45;71.81;98815.19;5003186;28;20366;-81
2022/04/23 00:46:29;;;;;;;21.02;13.68;;;;;;;10.39;72.41;98817.16;5004909;28;20037;-81
2022/04/23 00:48:54;;;;;;;25.13;14.47;;;;;;;10.28;72.47;98810.97;5005161;28;20013;-81
2022/04/23 00:51:20;;;;;;;21.38;12.82;;;;;;;10.29;72.83;98812.63;5003922;28;20418;-81
2022/04/23 00:53:47;;;;;;;18.15;13.02;;;;;;;10.14;73.45;98811.66;4988979;28;20420;-82
2022/04/23 00:56:13;;;;;;;19.40;11.93;;;;;;;10.34;72.47;98812.56;5004458;28;20033;-82
2022/04/23 00:58:39;;;;;;;20.35;12.55;;;;;;;10.35;72.02;98821.56;5004738;28;20036;-81
2022/04/23 01:01:05;;;;;;;21.02;11.45;;;;;;;10.35;72.32;98807.94;5004162;28;20026;-81
2022/04/23 01:03:30;;;;;;;18.98;11.70;;;;;;;10.26;72.33;98815.91;5004007;28;20033;-81
2022/04/23 01:05:57;;;;;;;19.17;11.13;;;;;;;10.14;72.45;98817.09;5004652;28;20028;-81
2022/04/23 01:08:25;;;;;;;20.85;11.48;;;;;;;10.08;73.05;98806.50;4999045;28;20079;-80
2022/04/23 01:10:52;;;;;;;15.77;10.77;;;;;;;10.10;72.69;98809.78;5003551;28;20092;-81
2022/04/23 01:13:17;;;;;;;22.95;10.57;;;;;;;10.19;72.75;98807.25;5003767;28;20049;-82
2022/04/23 01:16:04;;;;;;;14.77;9.95;;;;;;;10.30;72.14;98808.78;4994652;28;20036;-81
2022/04/23 01:18:30;;;;;;;17.13;9.30;;;;;;;10.34;72.11;98809.84;4984837;28;20034;-81
2022/04/23 01:20:56;;;;;;;21.38;12.35;;;;;;;10.24;72.46;98818.09;5002387;28;20030;-81
2022/04/23 01:23:22;;;;;;;16.17;9.93;;;;;;;10.24;72.95;98812.66;5004492;28;20056;-81
2022/04/23 01:25:52;;;;;;;21.50;11.20;;;;;;;10.36;72.26;98813.09;5003522;28;20076;-82
2022/04/23 01:28:19;;;;;;;17.65;11.05;;;;;;;10.45;72.05;98820.66;5003803;28;20409;-82
2022/04/23 01:30:47;;;;;;;18.40;11.10;;;;;;;10.59;71.61;98810.72;5000429;28;20025;-81
2022/04/23 01:33:13;;;;;;;20.45;11.73;;;;;;;10.58;71.94;98814.53;5003192;28;20117;-81
2022/04/23 01:35:38;;;;;;;20.52;12.63;;;;;;;10.52;72.37;98810.22;5003938;28;20101;-82
2022/04/23 01:38:03;;;;;;;21.40;12.13;;;;;;;10.52;72.69;98807.50;5003780;28;20571;-82
2022/04/23 01:40:28;;;;;;;19.30;12.77;;;;;;;10.51;73.20;98803.97;5005133;28;20255;-81
2022/04/23 01:42:53;;;;;;;22.50;13.00;;;;;;;10.41;74.08;98808.69;5003784;28;20256;-81
2022/04/23 01:45:19;;;;;;;23.50;13.47;;;;;;;10.48;74.12;98809.16;5003431;28;20730;-81
2022/04/23 01:47:44;;;;;;;25.27;15.20;;;;;;;10.35;74.60;98803.28;5003041;28;20260;-82
2022/04/23 01:50:09;;;;;;;23.60;14.37;;;;;;;10.28;75.47;98800.09;5002923;28;20267;-82
2022/04/23 01:52:35;;;;;;;22.77;14.68;;;;;;;10.41;74.99;98803.25;5002959;28;20283;-82
2022/04/23 01:55:00;;;;;;;29.07;16.53;;;;;;;10.41;74.81;98797.78;5003391;28;20575;-81
2022/04/23 01:57:25;;;;;;;24.00;16.15;;;;;;;10.35;75.07;98807.94;5003939;28;20359;-82
2022/04/23 02:00:08;;;;;;;30.83;18.10;;;;;;;10.23;76.17;98802.88;5002780;28;20044;-81
2022/04/23 02:02:36;;;;;;;31.83;17.60;;;;;;;10.11;76.57;98804.03;5002581;28;20502;-81
2022/04/23 02:05:05;;;;;;;27.23;17.48;;;;;;;10.07;77.19;98811.16;5003627;28;20030;-81
2022/04/23 02:07:30;;;;;;;26.55;19.48;;;;;;;10.16;76.93;98803.19;5003049;28;20049;-81
2022/04/23 02:09:55;;;;;;;28.45;19.77;;;;;;;10.12;77.48;98805.66;5003124;28;20528;-82
2022/04/23 02:12:20;;;;;;;26.70;17.43;;;;;;;10.32;76.50;98813.94;5002738;28;20025;-82
2022/04/23 02:14:48;;;;;;;32.13;19.13;;;;;;;10.21;76.58;98819.47;5002930;28;20340;-81
2022/04/23 02:17:14;;;;;;;34.78;19.83;;;;;;;10.19;76.49;98818.16;5002466;28;20247;-81
2022/04/23 02:19:39;;;;;;;28.65;17.83;;;;;;;10.09;77.09;98808.94;5003196;28;20056;-80
2022/04/23 02:22:05;;;;;;;29.05;17.98;;;;;;;10.16;76.83;98817.63;5003043;28;20050;-81
2022/04/23 02:24:30;;;;;;;31.10;19.02;;;;;;;10.22;76.75;98814.84;5002770;28;20103;-81
2022/04/23 02:26:56;;;;;;;32.17;20.42;;;;;;;10.16;77.07;98822.25;5003151;28;20025;-81
2022/04/23 02:29:21;;;;;;;33.20;21.30;;;;;;;10.23;76.86;98819.22;5002534;28;20103;-81
2022/04/23 02:31:46;;;;;;;34.50;21.90;;;;;;;10.13;77.03;98834.53;5002348;28;20291;-82
2022/04/23 02:34:12;;;;;;;37.03;19.60;;;;;;;10.29;76.77;98820.78;5003284;28;20035;-81
2022/04/23 02:36:37;;;;;;;34.60;21.10;;;;;;;10.24;76.68;98823.53;5003184;28;20117;-82
2022/04/23 02:39:03;;;;;;;30.20;19.48;;;;;;;10.32;76.37;98825.66;5002707;28;20022;-82
2022/04/23 02:41:28;;;;;;;32.47;19.25;;;;;;;10.46;75.65;98820.34;5002291;28;20120;-81
2022/04/23 02:43:54;;;;;;;28.48;18.85;;;;;;;10.55;75.29;98827.94;4985015;28;20137;-81
2022/04/23 02:46:19;;;;;;;30.98;20.63;;;;;;;10.37;76.01;98822.88;5002190;28;21839;-81
2022/04/23 02:48:45;;;;;;;26.65;19.35;;;;;;;10.53;75.53;98821.97;5002405;28;20026;-82
2022/04/23 02:51:15;;;;;;;25.70;17.60;;;;;;;10.62;75.06;98818.31;5001952;28;20140;-81
2022/04/23 02:53:42;;;;;;;31.85;18.73;;;;;;;10.58;75.21;98822.72;5002497;28;20119;-82
2022/04/23 02:56:13;;;;;;;30.98;20.13;;;;;;;10.56;75.32;98824.91;5002573;28;20029;-82
2022/04/23 02:58:38;;;;;;;31.67;21.33;;;;;;;10.55;75.52;98819.75;5002431;28;20061;-81
2022/04/23 03:01:03;;;;;;;29.17;19.17;;;;;;;10.57;75.40;98818.38;5001609;28;20034;-82
2022/04/23 03:03:29;;;;;;;31.15;21.33;;;;;;;10.45;75.30;98816.00;5001969;28;20461;-81
2022/04/23 03:05:55;;;;;;;28.67;18.85;;;;;;;10.49;75.64;98811.66;5002553;28;20048;-81
2022/04/23 03:08:23;;;;;;;26.88;19.13;;;;;;;10.58;75.18;98811.81;5002008;28;20076;-81
2022/04/23 03:10:49;;;;;;;30.15;18.90;;;;;;;10.56;75.35;98815.91;5001861;28;20036;-81
2022/04/23 03:13:14;;;;;;;29.67;19.58;;;;;;;10.54;75.49;98813.50;5002258;28;20022;-82
2022/04/23 03:15:39;;;;;;;35.35;20.35;;;;;;;10.61;75.07;98808.53;5002001;28;20109;-81
2022/04/23 03:18:29;;;;;;;33.70;18.73;;;;;;;10.65;75.23;98814.22;5001753;28;20451;-81
2022/04/23 03:20:55;;;;;;;33.17;20.48;;;;;;;10.68;75.16;98812.81;4999715;28;20029;-81
2022/04/23 03:23:21;;;;;;;34.60;19.88;;;;;;;10.70;75.18;98814.13;5002706;28;20022;-82
2022/04/23 03:25:47;;;;;;;27.48;20.08;;;;;;;10.71;75.55;98823.97;5001870;28;20097;-82
2022/04/23 03:28:14;;;;;;;31.05;19.33;;;;;;;10.65;75.87;98819.66;5002044;28;20026;-81
2022/04/23 03:30:40;;;;;;;31.05;19.60;;;;;;;10.68;75.77;98808.16;5001723;28;20037;-81
2022/04/23 03:33:06;;;;;;;32.88;20.00;;;;;;;10.72;75.33;98803.75;5001449;28;20045;-82
2022/04/23 03:35:31;;;;;;;31.70;20.88;;;;;;;10.70;75.51;98802.44;5001599;28;20041;-82
2022/04/23 03:37:58;;;;;;;35.92;20.83;;;;;;;10.66;75.37;98804.13;5001852;28;20120;-81
2022/04/23 03:40:23;;;;;;;29.80;21.00;;;;;;;10.59;75.50;98799.81;5003593;28;20021;-81
2022/04/23 03:42:49;;;;;;;29.38;18.27;;;;;;;10.55;75.76;98809.69;5001809;28;20937;-81
2022/04/23 03:45:17;;;;;;;32.65;19.70;;;;;;;10.60;75.50;98803.34;5001632;28;20077;-82
2022/04/23 03:47:46;;;;;;;33.22;19.60;;;;;;;10.43;76.03;98801.03;5002094;28;20018;-80
2022/04/23 03:50:12;;;;;;;38.72;21.50;;;;;;;10.35;76.38;98800.53;5001581;28;20027;-80
2022/04/23 03:52:38;;;;;;;37.20;22.40;;;;;;;10.39;76.13;98803.53;5001704;28;20034;-82
2022/04/23 03:55:07;;;;;;;32.03;19.80;;;;;;;10.32;76.61;98800.31;5001636;28;20075;-79
2022/04/23 03:57:46;;;;;;;34.35;21.90;;;;;;;10.30;76.07;98799.78;5001878;28;20272;-82
2022/04/23 04:00:13;;;;;;;31.77;21.17;;;;;;;10.23;77.18;98795.47;5001038;28;20018;-81
2022/04/23 04:02:38;;;;;;;29.20;18.20;;;;;;;10.26;77.42;98791.38;5002612;28;20066;-81
2022/04/23 04:05:04;;;;;;;32.08;20.27;;;;;;;10.30;77.06;98800.59;5001613;28;20550;-81
2022/04/23 04:07:29;;;;;;;37.25;21.25;;;;;;;10.31;76.98;98804.97;5001807;28;20058;-81
2022/04/23 04:09:55;;;;;;;33.00;19.97;;;;;;;10.34;77.11;98798.94;5001735;28;20041;-82
2022/04/23 04:12:20;;;;;;;32.20;19.90;;;;;;;10.40;77.11;98794.25;5001215;28;20279;-82
2022/04/23 04:14:45;;;;;;;36.97;21.30;;;;;;;10.40;76.69;98794.25;5001580;28;20291;-82
2022/04/23 04:17:11;;;;;;;36.23;20.80;;;;;;;10.16;77.63;98798.56;5004336;28;20267;-81
2022/04/23 04:19:38;;;;;;;30.92;19.35;;;;;;;10.15;77.81;98791.47;5005227;28;20329;-81
2022/04/23 04:22:04;;;;;;;36.40;22.65;;;;;;;10.24;77.19;98793.56;5005850;28;20030;-81
2022/04/23 04:24:30;;;;;;;32.85;20.08;;;;;;;10.19;77.37;98785.47;5005251;28;20157;-82
2022/04/23 04:26:57;;;;;;;31.27;21.63;;;;;;;10.10;78.09;98782.53;5005253;28;20567;-81
2022/04/23 04:29:24;;;;;;;32.70;20.50;;;;;;;10.02;78.54;98781.25;5005325;28;20034;-81
2022/04/23 04:31:50;;;;;;;30.30;19.92;;;;;;;10.03;78.72;98785.56;5004364;28;20081;-80
2022/04/23 04:34:17;;;;;;;32.38;20.92;;;;;;;10.12;78.18;98781.16;5005037;28;20057;-81
2022/04/23 04:36:43;;;;;;;30.92;20.02;;;;;;;10.16;78.42;98786.84;5004833;28;20125;-81
2022/04/23 04:39:08;;;;;;;30.70;19.75;;;;;;;10.05;78.32;98788.81;4984457;28;20405;-80
2022/04/23 04:41:35;;;;;;;33.03;20.23;;;;;;;10.18;77.85;98783.81;5004665;28;20536;-81
2022/04/23 04:44:01;;;;;;;34.60;20.83;;;;;;;10.19;78.03;98785.47;5004802;28;20461;-80
2022/04/23 04:46:27;;;;;;;36.78;20.92;;;;;;;10.16;77.86;98786.84;5004421;28;20029;-81
2022/04/23 04:48:52;;;;;;;31.80;18.73;;;;;;;10.04;78.22;98790.75;5004784;28;20460;-81
2022/04/23 04:51:17;;;;;;;35.63;21.80;;;;;;;10.02;78.38;98789.41;5003964;28;20287;-81
2022/04/23 04:53:42;;;;;;;31.02;18.40;;;;;;;10.00;78.78;98788.88;5004432;28;21043;-81
2022/04/23 04:56:21;;;;;;;31.87;18.50;;;;;;;10.00;78.82;98789.72;5004751;28;20113;-82
2022/04/23 04:58:47;;;;;;;32.40;17.67;;;;;;;10.12;78.57;98799.41;5004488;28;20243;-81
2022/04/23 05:01:13;;;;;;;37.15;22.85;;;;;;;10.21;78.48;98794.16;5003912;28;20100;-81
2022/04/23 05:03:40;;;;;;;30.00;18.48;;;;;;;10.25;78.35;98801.47;5003982;28;20310;-81
2022/04/23 05:06:09;;;;;;;31.45;19.02;;;;;;;10.36;77.92;98795.91;5004546;28;20014;-81
2022/04/23 05:08:35;;;;;;;33.08;19.10;;;;;;;10.31;77.95;98799.53;5003930;28;20471;-81
2022/04/23 05:11:00;;;;;;;32.10;20.05;;;;;;;10.38;77.50;98799.16;5003743;28;20081;-82
2022/04/23 05:13:26;;;;;;;33.03;20.55;;;;;;;10.47;77.22;98804.81;5004007;28;20021;-82
2022/04/23 05:15:51;;;;;;;28.75;19.02;;;;;;;10.56;77.04;98800.38;5004516;28;20022;-81
2022/04/23 05:18:17;;;;;;;43.50;24.30;;;;;;;10.59;76.31;98805.28;5004174;28;20101;-82
2022/04/23 05:20:42;;;;;;;28.92;17.95;;;;;;;10.61;76.69;98804.97;5003453;28;20073;-82
2022/04/23 05:23:07;;;;;;;30.53;18.10;;;;;;;10.67;76.15;98801.09;5004789;28;20041;-82
2022/04/23 05:25:32;;;;;;;33.40;21.77;;;;;;;10.74;75.93;98798.81;5004544;28;20263;-81
2022/04/23 05:27:58;;;;;;;32.83;20.83;;;;;;;10.59;76.38;98799.81;5003533;28;20342;-81
2022/04/23 05:30:23;;;;;;;31.52;19.30;;;;;;;10.53;76.39;98800.97;5003613;28;20415;-82
2022/04/23 05:32:49;;;;;;;31.42;20.02;;;;;;;10.43;76.77;98790.97;5003359;28;20049;-82
2022/04/23 05:35:14;;;;;;;48.73;21.20;;;;;;;10.47;76.32;98807.53;4992045;28;20030;-80
2022/04/23 05:37:40;;;;;;;34.83;19.70;;;;;;;10.45;76.29;98788.75;5004137;28;20394;-81
2022/04/23 05:40:06;;;;;;;35.20;18.98;;;;;;;10.53;76.06;98789.25;5005808;28;20271;-80
2022/04/23 05:42:31;;;;;;;33.58;21.60;;;;;;;10.57;75.90;98796.56;5005035;28;20076;-80
2022/04/23 05:44:56;;;;;;;33.95;20.63;;;;;;;10.50;76.35;98796.91;5004828;28;20057;-81
2022/04/23 05:47:22;;;;;;;36.33;19.80;;;;;;;10.46;76.24;98795.00;4985733;28;20120;-82
2022/04/23 05:49:47;;;;;;;35.43;21.70;;;;;;;10.53;75.78;98795.53;4985579;28;20288;-78
2022/04/23 05:52:12;;;;;;;29.63;19.70;;;;;;;10.60;75.75;98793.25;5003359;28;20762;-80
2022/04/23 05:54:37;;;;;;;39.30;22.60;;;;;;;10.57;75.62;98791.13;5006271;28;20271;-80
2022/04/23 05:57:03;;;;;;;30.37;19.30;;;;;;;10.61;75.50;98789.44;5006583;28;20033;-81
2022/04/23 05:59:31;;;;;;;34.72;21.02;;;;;;;10.57;75.48;98782.94;4997727;28;20263;-81
2022/04/23 06:01:57;;;;;;;34.15;19.63;;;;;;;10.55;76.13;98793.31;5003702;28;20343;-81
2022/04/23 06:04:23;;;;;;;33.03;20.02;;;;;;;10.59;76.06;98786.19;5003514;28;20030;-81
2022/04/23 06:06:49;;;;;;;34.63;20.77;;;;;;;10.69;75.31;98789.91;5002844;28;20045;-80
2022/04/23 06:09:14;;;;;;;35.70;20.98;;;;;;;10.78;75.17;98785.44;5002526;28;20021;-81
2022/04/23 06:11:39;;;;;;;31.45;18.70;;;;;;;10.82;75.03;98786.47;5002685;28;20036;-80
2022/04/23 06:14:05;;;;;;;31.40;20.20;;;;;;;10.88;74.56;98789.97;5003346;28;20030;-80
2022/04/23 06:16:30;;;;;;;36.78;21.92;;;;;;;10.74;74.75;98776.19;4999431;28;20028;-81
2022/04/23 06:18:55;;;;;;;37.58;19.20;;;;;;;10.88;75.11;98778.25;5003356;28;20046;-82
2022/04/23 06:21:21;;;;;;;29.87;20.37;;;;;;;10.98;74.27;98778.91;4984262;28;20037;-82
2022/04/23 06:23:46;;;;;;;33.60;18.63;;;;;;;11.05;74.49;98781.31;5002612;28;20264;-82
2022/04/23 06:26:12;;;;;;;33.28;18.13;;;;;;;11.07;74.07;98781.81;5003412;28;20476;-80
2022/04/23 06:28:37;;;;;;;47.60;21.10;;;;;;;11.15;73.46;98788.53;4993802;28;20030;-80
2022/04/23 06:31:02;;;;;;;30.87;20.33;;;;;;;11.29;73.02;98783.16;5002166;28;20033;-81
2022/04/23 06:33:28;;;;;;;30.55;19.25;;;;;;;11.32;73.42;98790.78;5002883;28;20259;-78
2022/04/23 06:35:53;;;;;;;41.25;21.13;;;;;;;11.40;72.59;98789.31;5003744;28;20026;-80
2022/04/23 06:38:18;;;;;;;35.30;20.65;;;;;;;11.58;72.34;98789.59;5004909;28;20053;-81
2022/04/23 06:40:44;;;;;;;38.50;20.83;;;;;;;11.71;71.48;98788.06;5004247;28;20038;-80
2022/04/23 06:43:09;;;;;;;37.73;21.87;;;;;;;11.71;70.99;98779.88;5003681;28;20040;-81
2022/04/23 06:45:34;;;;;;;36.13;22.60;;;;;;;11.56;71.69;98786.34;5003570;28;20244;-83
2022/04/23 06:48:07;;;;;;;42.25;24.45;;;;;;;11.68;71.39;98791.38;5004396;28;20626;-82
2022/04/23 06:50:33;;;;;;;36.42;22.10;;;;;;;11.63;70.61;98791.44;5003299;28;20070;-79
2022/04/23 06:52:59;;;;;;;34.30;21.00;;;;;;;11.62;70.49;98782.44;5003478;28;20489;-78
2022/04/23 06:55:25;;;;;;;34.08;21.52;;;;;;;11.69;70.92;98784.81;5003713;28;20045;-80
2022/04/23 06:57:51;;;;;;;32.58;21.77;;;;;;;11.67;70.55;98784.28;5005140;28;20037;-80
2022/04/23 07:00:16;;;;;;;35.55;22.83;;;;;;;11.57;71.10;98788.00;5004283;28;20025;-82
2022/04/23 07:02:42;;;;;;;41.22;22.17;;;;;;;11.59;70.85;98784.97;5004604;28;20539;-79
2022/04/23 07:05:08;;;;;;;37.28;20.77;;;;;;;11.67;70.13;98789.75;5005196;28;20045;-79
2022/04/23 07:07:33;;;;;;;30.75;18.38;;;;;;;11.76;70.03;98779.78;5003568;28;20927;-80
2022/04/23 07:09:58;;;;;;;31.48;18.65;;;;;;;11.85;69.62;98784.56;5003387;28;20030;-78
2022/04/23 07:12:24;;;;;;;37.92;21.63;;;;;;;11.87;69.10;98788.63;5004083;28;20041;-77
2022/04/23 07:14:49;;;;;;;29.35;18.65;;;;;;;12.00;69.03;98778.84;5002856;28;20069;-78
2022/04/23 07:17:28;;;;;;;36.53;20.20;;;;;;;11.96;68.76;98777.03;5001980;28;20025;-77
2022/04/23 07:19:53;;;;;;;32.63;19.33;;;;;;;12.01;68.06;98782.41;5002388;28;20026;-78
2022/04/23 07:22:19;;;;;;;26.92;18.05;;;;;;;12.10;68.08;98779.81;5002838;28;20030;-79
2022/04/23 07:24:45;;;;;;;29.95;18.65;;;;;;;12.17;67.33;98779.44;5001313;28;20427;-78
2022/04/23 07:27:11;;;;;;;38.05;18.95;;;;;;;12.31;67.68;98772.06;5001165;28;20037;-78
2022/04/23 07:29:36;;;;;;;35.05;19.08;;;;;;;12.48;67.35;98782.44;5001151;28;20034;-79
2022/04/23 07:32:02;;;;;;;34.10;19.25;;;;;;;12.49;66.69;98778.59;5001398;28;20045;-79
2022/04/23 07:40:05;;;;;;;31.60;18.63;;;;;;;12.72;66.07;98775.97;5003694;28;20041;-77
2022/04/23 07:42:31;;;;;;;31.50;20.67;;;;;;;12.79;66.81;98772.84;4999081;28;20114;-79
2022/04/23 07:44:58;;;;;;;38.20;22.58;;;;;;;12.82;66.78;98769.50;4984416;28;20487;-79
2022/04/23 07:47:38;;;;;;;31.30;19.38;;;;;;;12.80;65.71;98781.84;5001410;28;20054;-80
2022/04/23 07:50:04;;;;;;;33.60;19.70;;;;;;;12.93;65.99;98775.56;4985226;28;20037;-81
2022/04/23 07:52:30;;;;;;;35.97;18.95;;;;;;;12.99;65.73;98786.41;5005936;28;20025;-79
2022/04/23 07:54:55;;;;;;;32.38;18.98;;;;;;;12.96;65.19;98783.16;5006774;28;20026;-79
2022/04/23 07:57:22;;;;;;;29.55;19.98;;;;;;;13.03;65.08;98773.72;5008199;28;20048;-80
2022/04/23 07:59:48;;;;;;;34.47;18.80;;;;;;;12.91;64.77;98785.19;5006561;28;20018;-79
2022/04/23 08:02:13;;;;;;;30.65;18.45;;;;;;;12.92;64.84;98773.94;5008081;28;20026;-82
2022/04/23 08:04:38;;;;;;;28.13;16.42;;;;;;;12.93;63.62;98775.56;4990384;28;20025;-80
2022/04/23 08:07:04;;;;;;;25.67;15.70;;;;;;;12.99;63.45;98772.72;5008476;28;20531;-83
2022/04/23 08:09:29;;;;;;;29.02;17.35;;;;;;;13.14;63.35;98769.66;5009580;28;20517;-84
2022/04/23 08:11:55;;;;;;;29.92;14.73;;;;;;;13.31;62.04;98768.22;5010557;28;20044;-83
2022/04/23 08:14:20;;;;;;;24.00;14.30;;;;;;;13.48;61.68;98769.50;5009872;28;20101;-83
2022/04/23 08:16:48;;;;;;;20.92;13.40;;;;;;;13.52;61.62;98773.25;5009665;28;20165;-82
2022/04/23 08:19:14;;;;;;;27.17;15.07;;;;;;;13.41;59.52;98770.72;5006456;28;20037;-80
2022/04/23 08:21:39;;;;;;;28.67;14.55;;;;;;;13.35;59.47;98773.88;5011045;28;20025;-87
2022/04/23 08:24:05;;;;;;;23.35;13.40;;;;;;;13.48;58.13;98766.75;5015001;28;20026;-87
2022/04/23 08:26:30;;;;;;;58.75;17.75;;;;;;;13.36;58.33;98770.84;5009295;28;21047;-84
2022/04/23 08:31:39;;;;;;;24.17;12.77;;;;;;;13.68;57.32;98753.72;5009962;28;20693;-85
2022/04/23 08:34:05;;;;;;;21.70;11.13;;;;;;;13.73;57.36;98762.63;5010575;28;20030;-84
2022/04/23 08:36:35;;;;;;;22.10;12.93;;;;;;;13.88;57.01;98769.69;5010577;28;20267;-86
2022/04/23 08:42:05;;;;;;;70.65;17.27;;;;;;;13.52;57.67;98757.63;5002218;28;20083;-86
2022/04/23 08:44:31;;;;;;;112.15;21.65;;;;;;;13.40;57.69;98760.09;5009510;28;20029;-87
2022/04/23 08:46:58;;;;;;;20.98;12.50;;;;;;;13.45;57.96;98756.41;5009119;28;20034;-92
2022/04/23 08:49:29;;;;;;;18.40;11.10;;;;;;;13.53;57.78;98752.94;5010848;28;20030;-91
2022/04/23 08:52:20;;;;;;;24.98;13.13;;;;;;;13.67;57.93;98752.13;5025558;28;20033;-91
2022/04/23 08:54:46;;;;;;;30.60;11.35;;;;;;;13.73;57.15;98772.81;5006947;28;20033;-83
2022/04/23 08:57:12;;;;;;;75.38;19.38;;;;;;;13.67;56.41;98768.56;5007351;28;20109;-80
2022/04/23 08:59:41;;;;;;;28.38;13.75;;;;;;;13.75;56.44;98776.03;5007966;28;20141;-77
2022/04/23 09:02:13;;;;;;;25.35;14.20;;;;;;;13.92;56.07;98771.78;5006074;28;20524;-84
2022/04/23 09:04:42;;;;;;;23.77;12.10;;;;;;;13.99;56.38;98778.44;4990429;28;20465;-89
2022/04/23 09:07:18;;;;;;;108.50;18.83;;;;;;;14.10;55.61;98776.28;4990138;28;20050;-87
2022/04/23 09:09:48;;;;;;;19.15;10.68;;;;;;;14.28;55.06;98772.84;5004124;28;20025;-89
2022/04/23 09:12:13;;;;;;;45.33;13.98;;;;;;;14.49;54.31;98764.88;5008685;28;20666;-89
2022/04/23 09:14:39;;;;;;;19.90;12.70;;;;;;;14.49;54.40;98762.13;5010512;28;20026;-88
2022/04/23 09:25:35;;;;;;;20.10;12.93;;;;;;;14.89;53.98;98766.03;5009090;28;20123;-82
2022/04/23 09:28:16;;;;;;;23.63;13.02;;;;;;;14.84;53.77;98757.91;5006442;28;20065;-83
2022/04/23 09:30:42;;;;;;;20.90;11.95;;;;;;;14.70;53.86;98759.63;5007082;28;20037;-83
2022/04/23 09:33:07;;;;;;;24.23;12.63;;;;;;;14.89;53.61;98755.06;5007864;28;20034;-86
2022/04/23 09:35:33;;;;;;;19.58;12.25;;;;;;;14.97;53.38;98754.22;5009251;28;20037;-85
2022/04/23 09:38:20;;;;;;;18.40;11.45;;;;;;;14.97;53.43;98745.22;5005324;28;20022;-85
2022/04/23 09:41:19;;;;;;;19.77;10.70;;;;;;;15.01;52.80;98755.22;5000304;28;20037;-84
2022/04/23 09:43:46;;;;;;;19.23;11.90;;;;;;;14.96;52.88;98749.06;5004082;28;20045;-85
2022/04/23 09:46:12;;;;;;;20.88;12.43;;;;;;;15.02;53.59;98753.28;5003995;28;20042;-86
2022/04/23 09:48:38;;;;;;;32.88;14.05;;;;;;;15.13;52.18;98751.84;5003824;28;20100;-85
2022/04/23 09:51:05;;;;;;;21.98;11.52;;;;;;;15.18;53.19;98750.91;5003892;28;20033;-85
2022/04/23 09:53:30;;;;;;;18.15;10.70;;;;;;;15.33;52.73;98748.81;5003440;28;20034;-80
2022/04/23 09:56:04;;;;;;;16.55;9.27;;;;;;;15.34;53.03;98742.19;5004321;28;20459;-88
2022/04/23 09:58:29;;;;;;;15.88;9.27;;;;;;;15.37;51.86;98741.56;5004471;28;20111;-83
2022/04/23 10:00:57;;;;;;;24.13;9.85;;;;;;;15.55;51.54;98739.63;4989378;28;20528;-86
2022/04/23 10:03:33;;;;;;;17.80;9.25;;;;;;;15.63;50.78;98744.31;5001904;28;20598;-84
2022/04/23 10:05:59;;;;;;;35.00;10.07;;;;;;;15.70;49.93;98749.28;5002836;28;20500;-87
2022/04/23 10:08:27;;;;;;;15.48;8.45;;;;;;;15.75;51.08;98751.06;5002752;28;20057;-85
2022/04/23 10:11:03;;;;;;;17.33;10.15;;;;;;;16.03;50.38;98752.69;5002449;28;20237;-86
2022/04/23 10:13:30;;;;;;;15.90;10.48;;;;;;;16.15;50.07;98758.31;5003416;28;20045;-85
2022/04/23 10:15:57;;;;;;;21.02;9.55;;;;;;;16.03;49.83;98760.94;5002487;28;20029;-87
2022/04/23 10:18:23;;;;;;;17.95;9.23;;;;;;;16.14;49.80;98750.41;5002866;28;20578;-84
2022/04/23 10:20:54;;;;;;;14.77;9.25;;;;;;;16.42;49.38;98749.97;5002476;28;20026;-84
2022/04/23 10:23:42;;;;;;;21.55;10.38;;;;;;;16.37;49.31;98748.25;5002011;28;20057;-82
2022/04/23 10:26:28;;;;;;;23.02;11.50;;;;;;;16.42;49.04;98759.06;5004251;28;20049;-82
2022/04/23 10:28:53;;;;;;;18.63;9.82;;;;;;;16.32;49.41;98759.41;5004093;28;20360;-90
2022/04/23 10:31:19;;;;;;;27.25;12.73;;;;;;;16.18;48.84;98754.94;5002868;28;20030;-87
2022/04/23 10:33:47;;;;;;;19.15;10.57;;;;;;;16.09;49.01;98754.13;4979780;28;20066;-87
2022/04/23 10:36:13;;;;;;;23.60;11.43;;;;;;;16.31;48.56;98763.31;5002935;28;20064;-81
2022/04/23 10:38:45;;;;;;;56.20;14.70;;;;;;;16.38;48.81;98760.03;4999806;28;20504;-83
2022/04/23 10:41:12;;;;;;;20.85;10.43;;;;;;;16.42;48.70;98745.31;4989641;28;20473;-87
2022/04/23 10:43:55;;;;;;;15.45;9.50;;;;;;;16.54;48.78;98752.84;5000970;28;20026;-91
2022/04/23 10:46:40;;;;;;;28.88;10.93;;;;;;;16.57;47.17;98741.22;5002997;28;20025;-83
2022/04/23 10:49:21;;;;;;;33.78;10.55;;;;;;;16.43;47.78;98740.63;5001114;28;20033;-84
2022/04/23 10:51:50;;;;;;;18.45;10.60;;;;;;;16.60;47.23;98745.22;5000511;28;20377;-82
2022/04/23 10:54:19;;;;;;;17.73;10.00;;;;;;;16.84;47.07;98749.31;5001095;28;20111;-82
2022/04/23 10:56:53;;;;;;;20.15;10.25;;;;;;;16.87;47.85;98754.16;5002524;28;20025;-82
2022/04/23 10:59:39;;;;;;;;;;;;;;;17.01;46.97;98753.94;4999494;28;20160;-81
2022/04/23 11:02:13;;;;;;;51.00;15.80;;;;;;;17.07;46.79;98735.25;5002437;28;19925;-84
2022/04/23 11:13:29;;;;;;;36.15;14.13;;;;;;;17.21;45.70;98731.47;5004056;28;19932;-83
2022/04/23 11:16:13;;;;;;;15.75;9.77;;;;;;;17.09;45.68;98732.97;5004256;28;20040;-83
2022/04/23 11:18:41;;;;;;;21.13;12.38;;;;;;;16.98;46.16;98737.28;5003428;28;20128;-85
2022/04/23 11:21:12;;;;;;;18.00;10.77;;;;;;;17.12;46.34;98737.88;5006525;28;20042;-85
2022/04/23 11:23:42;;;;;;;20.02;10.50;;;;;;;17.23;44.55;98735.50;5006214;28;20108;-85
2022/04/23 11:26:11;;;;;;;16.50;10.65;;;;;;;17.48;44.18;98732.09;5003849;28;20040;-83
2022/04/23 11:28:37;;;;;;;27.73;12.68;;;;;;;17.56;44.01;98733.97;5003967;28;20687;-80
2022/04/23 11:31:10;;;;;;;21.10;11.65;;;;;;;17.75;43.74;98721.66;5003465;28;20030;-81
2022/04/23 11:33:36;;;;;;;21.38;12.98;;;;;;;17.49;44.29;98723.47;5003681;28;20021;-82
2022/04/23 11:36:01;;;;;;;97.63;17.75;;;;;;;17.22;44.36;98730.34;5003851;28;20030;-82
2022/04/23 11:38:28;;;;;;;22.08;11.35;;;;;;;17.10;44.11;98740.13;5004744;28;20069;-80
2022/04/23 11:40:54;;;;;;;17.83;10.98;;;;;;;17.13;44.62;98735.91;5003860;28;20030;-86
2022/04/23 11:43:33;;;;;;;21.25;11.63;;;;;;;17.35;43.51;98728.47;5005430;28;20092;-83
2022/04/23 11:46:03;;;;;;;100.18;22.27;;;;;;;17.66;43.27;98726.41;5003589;28;20026;-81
2022/04/23 11:48:39;;;;;;;26.40;11.63;;;;;;;17.42;42.62;98728.72;5003078;28;20053;-83
2022/04/23 11:51:05;;;;;;;18.55;11.23;;;;;;;17.11;43.38;98724.38;4998640;28;20052;-82
2022/04/23 11:53:46;;;;;;;18.65;9.52;;;;;;;16.85;43.79;98712.41;5003368;28;20025;-82